sensor_id;sensor_type;location;lat;lon;timestamp;pressure;altitude;pressure_sealevel;temperature;humidity
70971;BME280;58632;51.718;19.446;2023-03-26T00:02:04;98382.65;;;6.92;100.00
70971;BME280;58632;51.718;19.446;2023-03-26T00:04:30;98380.41;;;6.92;100.00
70971;BME280;58632;51.718;19.446;2023-03-26T00:06:58;98378.70;;;6.90;100.00
70971;BME280;58632;51.718;19.446;2023-03-26T00:09:23;98381.34;;;6.88;100.00
70971;BME280;58632;51.718;19.446;2023-03-26T00:11:49;98384.35;;;6.87;100.00
70971;BME280;58632;51.718;19.446;2023-03-26T00:14:14;98384.33;;;6.86;100.00
70971;BME280;58632;51.718;19.446;2023-03-26T00:16:41;98377.86;;;6.88;100.00
70971;BME280;58632;51.718;19.446;2023-03-26T00:19:07;98377.33;;;6.88;100.00
70971;BME280;58632;51.718;19.446;2023-03-26T00:21:33;98374.38;;;6.89;100.00
70971;BME280;58632;51.718;19.446;2023-03-26T00:24:00;98370.77;;;6.89;100.00
70971;BME280;58632;51.718;19.446;2023-03-26T00:26:28;98373.38;;;6.88;100.00
70971;BME280;58632;51.718;19.446;2023-03-26T00:28:55;98370.25;;;6.86;100.00
70971;BME280;58632;51.718;19.446;2023-03-26T00:31:21;98364.67;;;6.87;100.00
70971;BME280;58632;51.718;19.446;2023-03-26T00:33:49;98361.71;;;6.87;100.00
70971;BME280;58632;51.718;19.446;2023-03-26T00:36:15;98357.26;;;6.86;100.00
70971;BME280;58632;51.718;19.446;2023-03-26T00:38:42;98360.21;;;6.85;100.00
70971;BME280;58632;51.718;19.446;2023-03-26T00:41:09;98357.55;;;6.85;100.00
70971;BME280;58632;51.718;19.446;2023-03-26T00:43:43;98356.35;;;6.82;100.00
70971;BME280;58632;51.718;19.446;2023-03-26T00:46:09;98351.25;;;6.83;100.00
70971;BME280;58632;51.718;19.446;2023-03-26T00:48:35;98351.05;;;6.84;100.00
70971;BME280;58632;51.718;19.446;2023-03-26T00:51:03;98347.40;;;6.86;100.00
70971;BME280;58632;51.718;19.446;2023-03-26T00:53:29;98343.66;;;6.88;100.00
70971;BME280;58632;51.718;19.446;2023-03-26T00:55:54;98343.48;;;6.90;100.00
70971;BME280;58632;51.718;19.446;2023-03-26T00:58:27;98339.88;;;6.89;100.00
70971;BME280;58632;51.718;19.446;2023-03-26T01:00:58;98340.52;;;6.87;100.00
70971;BME280;58632;51.718;19.446;2023-03-26T01:03:24;98338.33;;;6.85;100.00
70971;BME280;58632;51.718;19.446;2023-03-26T01:05:51;98334.38;;;6.83;100.00
70971;BME280;58632;51.718;19.446;2023-03-26T01:08:22;98335.01;;;6.81;100.00
70971;BME280;58632;51.718;19.446;2023-03-26T01:10:49;98331.01;;;6.78;100.00
70971;BME280;58632;51.718;19.446;2023-03-26T01:13:21;98333.80;;;6.80;100.00
70971;BME280;58632;51.718;19.446;2023-03-26T01:15:48;98327.61;;;6.81;100.00
70971;BME280;58632;51.718;19.446;2023-03-26T01:18:20;98326.98;;;6.83;100.00
70971;BME280;58632;51.718;19.446;2023-03-26T01:20:47;98325.12;;;6.85;100.00
70971;BME280;58632;51.718;19.446;2023-03-26T01:23:15;98322.45;;;6.86;100.00
70971;BME280;58632;51.718;19.446;2023-03-26T01:25:44;98328.75;;;6.87;100.00
70971;BME280;58632;51.718;19.446;2023-03-26T01:28:12;98328.11;;;6.86;100.00
70971;BME280;58632;51.718;19.446;2023-03-26T01:30:43;98328.52;;;6.87;100.00
70971;BME280;58632;51.718;19.446;2023-03-26T01:33:19;98325.05;;;6.85;100.00
70971;BME280;58632;51.718;19.446;2023-03-26T01:35:59;98319.60;;;6.85;100.00
70971;BME280;58632;51.718;19.446;2023-03-26T01:38:38;98321.33;;;6.86;100.00
70971;BME280;58632;51.718;19.446;2023-03-26T01:41:12;98320.74;;;6.87;100.00
70971;BME280;58632;51.718;19.446;2023-03-26T01:46:08;98312.73;;;6.89;100.00
70971;BME280;58632;51.718;19.446;2023-03-26T01:48:37;98310.85;;;6.88;100.00
70971;BME280;58632;51.718;19.446;2023-03-26T01:51:04;98311.33;;;6.84;100.00
70971;BME280;58632;51.718;19.446;2023-03-26T01:53:29;98311.30;;;6.84;100.00
70971;BME280;58632;51.718;19.446;2023-03-26T01:58:40;98305.14;;;6.83;100.00
70971;BME280;58632;51.718;19.446;2023-03-26T02:01:12;98305.69;;;6.81;100.00
70971;BME280;58632;51.718;19.446;2023-03-26T02:03:43;98302.27;;;6.78;100.00
70971;BME280;58632;51.718;19.446;2023-03-26T02:08:44;98297.85;;;6.76;100.00
70971;BME280;58632;51.718;19.446;2023-03-26T02:11:12;98294.52;;;6.79;100.00
70971;BME280;58632;51.718;19.446;2023-03-26T02:13:39;98297.85;;;6.79;100.00
70971;BME280;58632;51.718;19.446;2023-03-26T02:16:06;98291.80;;;6.75;100.00
70971;BME280;58632;51.718;19.446;2023-03-26T02:18:33;98288.82;;;6.74;100.00
70971;BME280;58632;51.718;19.446;2023-03-26T02:21:13;98290.43;;;6.72;100.00
70971;BME280;58632;51.718;19.446;2023-03-26T02:23:40;98284.69;;;6.65;100.00
70971;BME280;58632;51.718;19.446;2023-03-26T02:26:10;98284.08;;;6.62;100.00
70971;BME280;58632;51.718;19.446;2023-03-26T02:28:35;98282.45;;;6.57;100.00
70971;BME280;58632;51.718;19.446;2023-03-26T02:31:01;98283.19;;;6.54;100.00
70971;BME280;58632;51.718;19.446;2023-03-26T02:33:27;98282.91;;;6.51;100.00
70971;BME280;58632;51.718;19.446;2023-03-26T02:35:53;98276.34;;;6.48;100.00
70971;BME280;58632;51.718;19.446;2023-03-26T02:38:19;98276.56;;;6.44;100.00
70971;BME280;58632;51.718;19.446;2023-03-26T02:40:44;98279.52;;;6.42;100.00
70971;BME280;58632;51.718;19.446;2023-03-26T02:43:10;98275.30;;;6.41;100.00
70971;BME280;58632;51.718;19.446;2023-03-26T02:45:36;98276.09;;;6.42;100.00
70971;BME280;58632;51.718;19.446;2023-03-26T02:48:01;98277.69;;;6.44;100.00
70971;BME280;58632;51.718;19.446;2023-03-26T02:50:27;98278.30;;;6.48;100.00
70971;BME280;58632;51.718;19.446;2023-03-26T02:52:56;98279.10;;;6.51;100.00
70971;BME280;58632;51.718;19.446;2023-03-26T02:55:22;98277.36;;;6.52;100.00
70971;BME280;58632;51.718;19.446;2023-03-26T02:57:48;98275.14;;;6.53;100.00
70971;BME280;58632;51.718;19.446;2023-03-26T03:00:13;98279.98;;;6.56;100.00
70971;BME280;58632;51.718;19.446;2023-03-26T03:02:41;98273.06;;;6.55;100.00
70971;BME280;58632;51.718;19.446;2023-03-26T03:05:08;98278.84;;;6.54;100.00
70971;BME280;58632;51.718;19.446;2023-03-26T03:07:34;98279.33;;;6.55;100.00
70971;BME280;58632;51.718;19.446;2023-03-26T03:10:06;98274.77;;;6.57;100.00
70971;BME280;58632;51.718;19.446;2023-03-26T03:12:33;98278.52;;;6.61;100.00
70971;BME280;58632;51.718;19.446;2023-03-26T03:14:58;98280.21;;;6.62;100.00
70971;BME280;58632;51.718;19.446;2023-03-26T03:17:24;98278.71;;;6.64;100.00
70971;BME280;58632;51.718;19.446;2023-03-26T03:19:49;98278.64;;;6.64;100.00
70971;BME280;58632;51.718;19.446;2023-03-26T03:22:15;98278.51;;;6.67;100.00
70971;BME280;58632;51.718;19.446;2023-03-26T03:24:41;98278.10;;;6.68;100.00
70971;BME280;58632;51.718;19.446;2023-03-26T03:27:08;98279.23;;;6.67;100.00
70971;BME280;58632;51.718;19.446;2023-03-26T03:29:33;98276.19;;;6.64;100.00
70971;BME280;58632;51.718;19.446;2023-03-26T03:31:59;98276.36;;;6.63;100.00
70971;BME280;58632;51.718;19.446;2023-03-26T03:34:25;98275.63;;;6.62;100.00
70971;BME280;58632;51.718;19.446;2023-03-26T03:36:50;98274.16;;;6.62;100.00
70971;BME280;58632;51.718;19.446;2023-03-26T03:39:16;98272.17;;;6.61;100.00
70971;BME280;58632;51.718;19.446;2023-03-26T03:41:42;98271.95;;;6.62;100.00
70971;BME280;58632;51.718;19.446;2023-03-26T03:44:07;98272.10;;;6.59;100.00
70971;BME280;58632;51.718;19.446;2023-03-26T03:46:33;98269.05;;;6.56;100.00
70971;BME280;58632;51.718;19.446;2023-03-26T03:48:59;98269.45;;;6.54;100.00
70971;BME280;58632;51.718;19.446;2023-03-26T03:51:24;98268.92;;;6.57;100.00
70971;BME280;58632;51.718;19.446;2023-03-26T03:53:50;98272.52;;;6.60;100.00
70971;BME280;58632;51.718;19.446;2023-03-26T03:56:16;98270.81;;;6.60;100.00
70971;BME280;58632;51.718;19.446;2023-03-26T03:58:43;98271.02;;;6.63;100.00
70971;BME280;58632;51.718;19.446;2023-03-26T04:01:10;98272.39;;;6.67;100.00
70971;BME280;58632;51.718;19.446;2023-03-26T04:03:37;98274.92;;;6.70;100.00
70971;BME280;58632;51.718;19.446;2023-03-26T04:06:04;98278.11;;;6.72;100.00
70971;BME280;58632;51.718;19.446;2023-03-26T04:08:31;98280.48;;;6.74;100.00
70971;BME280;58632;51.718;19.446;2023-03-26T04:10:56;98278.65;;;6.75;100.00
70971;BME280;58632;51.718;19.446;2023-03-26T04:13:22;98277.14;;;6.77;100.00
70971;BME280;58632;51.718;19.446;2023-03-26T04:15:48;98283.06;;;6.81;100.00
70971;BME280;58632;51.718;19.446;2023-03-26T04:18:13;98277.79;;;6.83;100.00
70971;BME280;58632;51.718;19.446;2023-03-26T04:20:39;98279.39;;;6.87;100.00
70971;BME280;58632;51.718;19.446;2023-03-26T04:23:10;98284.05;;;6.89;100.00
70971;BME280;58632;51.718;19.446;2023-03-26T04:25:41;98285.10;;;6.90;100.00
70971;BME280;58632;51.718;19.446;2023-03-26T04:28:08;98289.55;;;6.90;100.00
70971;BME280;58632;51.718;19.446;2023-03-26T04:30:36;98291.85;;;6.92;100.00
70971;BME280;58632;51.718;19.446;2023-03-26T04:33:02;98285.46;;;6.91;100.00
70971;BME280;58632;51.718;19.446;2023-03-26T04:35:30;98286.66;;;6.90;100.00
70971;BME280;58632;51.718;19.446;2023-03-26T04:37:58;98276.48;;;6.88;100.00
70971;BME280;58632;51.718;19.446;2023-03-26T04:40:24;98273.30;;;6.86;100.00
70971;BME280;58632;51.718;19.446;2023-03-26T04:42:50;98268.94;;;6.86;100.00
70971;BME280;58632;51.718;19.446;2023-03-26T04:45:18;98262.48;;;6.88;100.00
70971;BME280;58632;51.718;19.446;2023-03-26T04:47:46;98258.08;;;6.86;100.00
70971;BME280;58632;51.718;19.446;2023-03-26T04:50:12;98259.81;;;6.85;100.00
70971;BME280;58632;51.718;19.446;2023-03-26T04:52:38;98259.36;;;6.83;100.00
70971;BME280;58632;51.718;19.446;2023-03-26T04:55:12;98255.74;;;6.82;100.00
70971;BME280;58632;51.718;19.446;2023-03-26T04:57:41;98256.31;;;6.83;100.00
70971;BME280;58632;51.718;19.446;2023-03-26T05:00:10;98259.63;;;6.82;100.00
70971;BME280;58632;51.718;19.446;2023-03-26T05:02:43;98260.18;;;6.80;100.00
70971;BME280;58632;51.718;19.446;2023-03-26T05:05:10;98258.27;;;6.80;100.00
70971;BME280;58632;51.718;19.446;2023-03-26T05:07:35;98255.02;;;6.78;100.00
70971;BME280;58632;51.718;19.446;2023-03-26T05:10:01;98254.28;;;6.77;100.00
70971;BME280;58632;51.718;19.446;2023-03-26T05:12:30;98253.79;;;6.79;100.00
70971;BME280;58632;51.718;19.446;2023-03-26T05:14:56;98256.24;;;6.83;100.00
70971;BME280;58632;51.718;19.446;2023-03-26T05:17:21;98256.86;;;6.89;100.00
70971;BME280;58632;51.718;19.446;2023-03-26T05:19:47;98254.02;;;6.97;100.00
70971;BME280;58632;51.718;19.446;2023-03-26T05:22:13;98257.86;;;7.02;100.00
70971;BME280;58632;51.718;19.446;2023-03-26T05:24:38;98257.52;;;7.04;100.00
70971;BME280;58632;51.718;19.446;2023-03-26T05:27:04;98250.86;;;7.07;100.00
70971;BME280;58632;51.718;19.446;2023-03-26T05:29:30;98252.35;;;7.09;100.00
70971;BME280;58632;51.718;19.446;2023-03-26T05:31:56;98249.10;;;7.10;100.00
70971;BME280;58632;51.718;19.446;2023-03-26T05:34:21;98252.94;;;7.10;100.00
70971;BME280;58632;51.718;19.446;2023-03-26T05:36:50;98253.83;;;7.20;100.00
70971;BME280;58632;51.718;19.446;2023-03-26T05:39:16;98254.86;;;7.71;100.00
70971;BME280;58632;51.718;19.446;2023-03-26T05:41:42;98256.04;;;8.39;100.00
70971;BME280;58632;51.718;19.446;2023-03-26T05:44:07;98249.44;;;8.91;100.00
70971;BME280;58632;51.718;19.446;2023-03-26T05:46:33;98249.05;;;9.06;100.00
70971;BME280;58632;51.718;19.446;2023-03-26T05:48:58;98245.30;;;9.00;100.00
70971;BME280;58632;51.718;19.446;2023-03-26T05:51:24;98247.49;;;8.98;100.00
70971;BME280;58632;51.718;19.446;2023-03-26T05:53:49;98248.17;;;9.03;100.00
70971;BME280;58632;51.718;19.446;2023-03-26T05:56:15;98254.54;;;9.13;100.00
70971;BME280;58632;51.718;19.446;2023-03-26T05:58:41;98254.38;;;9.22;100.00
70971;BME280;58632;51.718;19.446;2023-03-26T06:01:07;98257.09;;;9.35;100.00
70971;BME280;58632;51.718;19.446;2023-03-26T06:03:34;98259.01;;;9.53;100.00
70971;BME280;58632;51.718;19.446;2023-03-26T06:05:59;98256.31;;;9.77;100.00
70971;BME280;58632;51.718;19.446;2023-03-26T06:08:25;98256.11;;;9.98;100.00
70971;BME280;58632;51.718;19.446;2023-03-26T06:10:56;98259.48;;;10.09;100.00
70971;BME280;58632;51.718;19.446;2023-03-26T06:13:22;98257.23;;;10.09;100.00
70971;BME280;58632;51.718;19.446;2023-03-26T06:15:48;98259.33;;;9.88;100.00
70971;BME280;58632;51.718;19.446;2023-03-26T06:18:13;98257.57;;;9.70;100.00
70971;BME280;58632;51.718;19.446;2023-03-26T06:20:42;98261.63;;;9.63;100.00
70971;BME280;58632;51.718;19.446;2023-03-26T06:23:07;98262.25;;;9.57;100.00
70971;BME280;58632;51.718;19.446;2023-03-26T06:25:33;98260.82;;;9.56;100.00
70971;BME280;58632;51.718;19.446;2023-03-26T06:27:58;98261.09;;;9.67;100.00
70971;BME280;58632;51.718;19.446;2023-03-26T06:30:24;98260.31;;;9.74;100.00
70971;BME280;58632;51.718;19.446;2023-03-26T06:32:50;98256.81;;;9.81;100.00
70971;BME280;58632;51.718;19.446;2023-03-26T06:35:15;98254.35;;;10.03;100.00
70971;BME280;58632;51.718;19.446;2023-03-26T06:37:41;98258.30;;;10.31;100.00
70971;BME280;58632;51.718;19.446;2023-03-26T06:40:07;98259.59;;;10.44;100.00
70971;BME280;58632;51.718;19.446;2023-03-26T06:42:33;98263.73;;;10.69;100.00
70971;BME280;58632;51.718;19.446;2023-03-26T06:44:58;98261.32;;;11.10;100.00
70971;BME280;58632;51.718;19.446;2023-03-26T06:47:24;98260.91;;;11.52;100.00
70971;BME280;58632;51.718;19.446;2023-03-26T06:49:50;98259.70;;;11.64;100.00
70971;BME280;58632;51.718;19.446;2023-03-26T06:52:15;98259.66;;;11.66;100.00
70971;BME280;58632;51.718;19.446;2023-03-26T06:54:41;98269.96;;;11.64;100.00
70971;BME280;58632;51.718;19.446;2023-03-26T06:57:06;98268.31;;;11.63;100.00
70971;BME280;58632;51.718;19.446;2023-03-26T06:59:32;98270.42;;;11.63;100.00
70971;BME280;58632;51.718;19.446;2023-03-26T07:01:57;98268.33;;;11.59;100.00
70971;BME280;58632;51.718;19.446;2023-03-26T07:04:23;98270.41;;;11.58;100.00
70971;BME280;58632;51.718;19.446;2023-03-26T07:06:48;98278.82;;;11.68;100.00
70971;BME280;58632;51.718;19.446;2023-03-26T07:09:14;98288.41;;;11.75;100.00
70971;BME280;58632;51.718;19.446;2023-03-26T07:11:40;98289.20;;;11.67;100.00
70971;BME280;58632;51.718;19.446;2023-03-26T07:14:05;98286.00;;;11.54;100.00
70971;BME280;58632;51.718;19.446;2023-03-26T07:16:31;98286.07;;;11.27;100.00
70971;BME280;58632;51.718;19.446;2023-03-26T07:18:57;98292.22;;;11.09;100.00
70971;BME280;58632;51.718;19.446;2023-03-26T07:21:23;98291.92;;;11.09;100.00
70971;BME280;58632;51.718;19.446;2023-03-26T07:23:49;98286.91;;;11.14;100.00
70971;BME280;58632;51.718;19.446;2023-03-26T07:26:22;98287.69;;;11.13;100.00
70971;BME280;58632;51.718;19.446;2023-03-26T07:28:52;98287.45;;;11.25;100.00
70971;BME280;58632;51.718;19.446;2023-03-26T07:31:26;98292.31;;;11.52;100.00
70971;BME280;58632;51.718;19.446;2023-03-26T07:38:58;98295.40;;;11.67;100.00
70971;BME280;58632;51.718;19.446;2023-03-26T07:41:49;98299.00;;;11.66;100.00
70971;BME280;58632;51.718;19.446;2023-03-26T07:46:58;98295.27;;;11.17;100.00
70971;BME280;58632;51.718;19.446;2023-03-26T07:49:25;98295.30;;;10.98;100.00
70971;BME280;58632;51.718;19.446;2023-03-26T07:51:51;98294.31;;;11.08;100.00
70971;BME280;58632;51.718;19.446;2023-03-26T07:54:17;98296.44;;;11.29;100.00
70971;BME280;58632;51.718;19.446;2023-03-26T07:57:05;98298.32;;;11.29;100.00
70971;BME280;58632;51.718;19.446;2023-03-26T08:02:18;98299.52;;;11.11;100.00
70971;BME280;58632;51.718;19.446;2023-03-26T08:05:04;98294.55;;;10.96;100.00
70971;BME280;58632;51.718;19.446;2023-03-26T08:07:59;98293.41;;;10.94;100.00
70971;BME280;58632;51.718;19.446;2023-03-26T08:15:40;98294.02;;;11.38;100.00
70971;BME280;58632;51.718;19.446;2023-03-26T08:18:18;98296.14;;;11.46;100.00
70971;BME280;58632;51.718;19.446;2023-03-26T08:20:59;98298.52;;;11.36;100.00
70971;BME280;58632;51.718;19.446;2023-03-26T08:31:02;98294.00;;;10.24;100.00
70971;BME280;58632;51.718;19.446;2023-03-26T08:33:28;98295.72;;;10.11;100.00
70971;BME280;58632;51.718;19.446;2023-03-26T08:35:54;98294.63;;;10.04;100.00
70971;BME280;58632;51.718;19.446;2023-03-26T08:38:20;98290.09;;;10.01;100.00
70971;BME280;58632;51.718;19.446;2023-03-26T08:43:53;98291.33;;;10.04;100.00
70971;BME280;58632;51.718;19.446;2023-03-26T09:04:51;98301.48;;;8.49;100.00
70971;BME280;58632;51.718;19.446;2023-03-26T09:12:50;98295.77;;;9.06;100.00
70971;BME280;58632;51.718;19.446;2023-03-26T09:33:25;98284.49;;;11.57;100.00
70971;BME280;58632;51.718;19.446;2023-03-26T09:35:54;98281.97;;;11.88;100.00
70971;BME280;58632;51.718;19.446;2023-03-26T09:41:13;98286.95;;;12.03;100.00
70971;BME280;58632;51.718;19.446;2023-03-26T10:02:08;98253.29;;;12.51;100.00
70971;BME280;58632;51.718;19.446;2023-03-26T10:08:02;98256.36;;;12.47;100.00
70971;BME280;58632;51.718;19.446;2023-03-26T10:10:34;98257.41;;;12.32;100.00
70971;BME280;58632;51.718;19.446;2023-03-26T10:15:33;98263.25;;;12.57;100.00
70971;BME280;58632;51.718;19.446;2023-03-26T10:28:45;98244.90;;;13.04;100.00
70971;BME280;58632;51.718;19.446;2023-03-26T10:34:09;98244.92;;;13.41;100.00
70971;BME280;58632;51.718;19.446;2023-03-26T10:36:42;98240.83;;;13.49;100.00
70971;BME280;58632;51.718;19.446;2023-03-26T10:39:25;98240.40;;;13.62;100.00
70971;BME280;58632;51.718;19.446;2023-03-26T10:44:29;98234.02;;;14.01;100.00
70971;BME280;58632;51.718;19.446;2023-03-26T10:52:28;98239.61;;;14.40;100.00
70971;BME280;58632;51.718;19.446;2023-03-26T10:57:21;98239.25;;;14.57;100.00
70971;BME280;58632;51.718;19.446;2023-03-26T10:59:48;98232.59;;;14.79;100.00
70971;BME280;58632;51.718;19.446;2023-03-26T11:02:20;98225.83;;;14.81;98.06
70971;BME280;58632;51.718;19.446;2023-03-26T11:04:52;98229.08;;;14.66;94.12
70971;BME280;58632;51.718;19.446;2023-03-26T11:07:20;98228.63;;;14.47;87.38
70971;BME280;58632;51.718;19.446;2023-03-26T11:09:59;98230.27;;;14.16;89.25
70971;BME280;58632;51.718;19.446;2023-03-26T11:12:36;98233.15;;;14.02;96.27
70971;BME280;58632;51.718;19.446;2023-03-26T11:17:44;98228.20;;;14.10;91.02
70971;BME280;58632;51.718;19.446;2023-03-26T11:31:31;98232.80;;;13.57;100.00
70971;BME280;58632;51.718;19.446;2023-03-26T11:33:53;98234.02;;;13.71;100.00
70971;BME280;58632;51.718;19.446;2023-03-26T11:36:22;98240.98;;;13.86;100.00
70971;BME280;58632;51.718;19.446;2023-03-26T11:38:50;98238.86;;;13.95;100.00
70971;BME280;58632;51.718;19.446;2023-03-26T11:41:21;98241.36;;;13.94;95.07
70971;BME280;58632;51.718;19.446;2023-03-26T11:43:48;98247.09;;;13.91;95.79
70971;BME280;58632;51.718;19.446;2023-03-26T11:46:17;98242.83;;;14.02;98.47
70971;BME280;58632;51.718;19.446;2023-03-26T11:48:49;98243.52;;;14.11;97.50
70971;BME280;58632;51.718;19.446;2023-03-26T11:51:30;98240.65;;;14.05;92.49
70971;BME280;58632;51.718;19.446;2023-03-26T11:53:57;98241.00;;;13.88;91.66
70971;BME280;58632;51.718;19.446;2023-03-26T11:58:56;98249.95;;;13.66;93.83
70971;BME280;58632;51.718;19.446;2023-03-26T12:04:14;98240.58;;;13.46;96.02
70971;BME280;58632;51.718;19.446;2023-03-26T12:06:51;98239.56;;;13.57;95.67
70971;BME280;58632;51.718;19.446;2023-03-26T12:09:17;98236.36;;;13.59;92.94
70971;BME280;58632;51.718;19.446;2023-03-26T12:11:43;98235.67;;;13.53;93.59
70971;BME280;58632;51.718;19.446;2023-03-26T12:14:15;98228.04;;;13.50;92.03
70971;BME280;58632;51.718;19.446;2023-03-26T12:16:58;98225.22;;;13.42;89.92
70971;BME280;58632;51.718;19.446;2023-03-26T12:19:23;98228.52;;;13.29;90.78
70971;BME280;58632;51.718;19.446;2023-03-26T12:21:51;98221.85;;;13.22;91.33
70971;BME280;58632;51.718;19.446;2023-03-26T12:24:24;98224.10;;;13.19;89.51
70971;BME280;58632;51.718;19.446;2023-03-26T12:26:55;98221.45;;;13.14;83.90
70971;BME280;58632;51.718;19.446;2023-03-26T12:29:21;98224.27;;;13.12;86.93
70971;BME280;58632;51.718;19.446;2023-03-26T12:31:51;98221.41;;;13.18;86.68
70971;BME280;58632;51.718;19.446;2023-03-26T12:34:19;98222.41;;;13.14;83.94
70971;BME280;58632;51.718;19.446;2023-03-26T12:36:49;98220.71;;;13.11;85.86
70971;BME280;58632;51.718;19.446;2023-03-26T12:39:26;98226.86;;;13.13;90.30
70971;BME280;58632;51.718;19.446;2023-03-26T12:41:59;98218.83;;;13.10;87.58
70971;BME280;58632;51.718;19.446;2023-03-26T12:44:25;98225.45;;;12.91;88.70
70971;BME280;58632;51.718;19.446;2023-03-26T12:47:05;98228.72;;;12.75;90.60
70971;BME280;58632;51.718;19.446;2023-03-26T12:49:32;98232.73;;;12.52;98.06
70971;BME280;58632;51.718;19.446;2023-03-26T12:52:01;98239.05;;;12.37;99.97
70971;BME280;58632;51.718;19.446;2023-03-26T12:57:19;98236.73;;;12.23;100.00
70971;BME280;58632;51.718;19.446;2023-03-26T13:06:09;98227.92;;;12.31;100.00
70971;BME280;58632;51.718;19.446;2023-03-26T13:10:35;98221.80;;;12.88;100.00
70971;BME280;58632;51.718;19.446;2023-03-26T13:15:31;98219.34;;;12.93;100.00
70971;BME280;58632;51.718;19.446;2023-03-26T13:18:03;98212.80;;;12.82;100.00
70971;BME280;58632;51.718;19.446;2023-03-26T13:26:09;98217.02;;;12.76;100.00
70971;BME280;58632;51.718;19.446;2023-03-26T13:33:38;98210.86;;;12.93;100.00
70971;BME280;58632;51.718;19.446;2023-03-26T13:47:24;98193.90;;;13.30;97.51
70971;BME280;58632;51.718;19.446;2023-03-26T13:49:52;98193.71;;;13.12;95.44
70971;BME280;58632;51.718;19.446;2023-03-26T13:52:20;98192.40;;;12.98;96.12
70971;BME280;58632;51.718;19.446;2023-03-26T13:57:31;98196.84;;;13.03;95.99
70971;BME280;58632;51.718;19.446;2023-03-26T14:00:14;98190.79;;;13.10;96.95
70971;BME280;58632;51.718;19.446;2023-03-26T14:02:42;98188.49;;;13.17;95.55
70971;BME280;58632;51.718;19.446;2023-03-26T14:05:12;98183.58;;;13.19;97.53
70971;BME280;58632;51.718;19.446;2023-03-26T14:07:42;98186.21;;;13.37;98.84
70971;BME280;58632;51.718;19.446;2023-03-26T14:10:10;98186.91;;;13.56;100.00
70971;BME280;58632;51.718;19.446;2023-03-26T14:18:05;98181.00;;;13.96;99.98
70971;BME280;58632;51.718;19.446;2023-03-26T14:23:20;98181.26;;;14.01;98.70
70971;BME280;58632;51.718;19.446;2023-03-26T14:31:18;98185.50;;;13.45;97.07
70971;BME280;58632;51.718;19.446;2023-03-26T14:41:10;98188.59;;;13.02;100.00
70971;BME280;58632;51.718;19.446;2023-03-26T14:54:13;98182.49;;;12.55;100.00
70971;BME280;58632;51.718;19.446;2023-03-26T15:04:40;98182.21;;;12.44;100.00
70971;BME280;58632;51.718;19.446;2023-03-26T15:42:58;98184.41;;;11.48;100.00
70971;BME280;58632;51.718;19.446;2023-03-26T15:45:31;98179.45;;;11.41;100.00
70971;BME280;58632;51.718;19.446;2023-03-26T15:55:41;98180.75;;;10.98;100.00
70971;BME280;58632;51.718;19.446;2023-03-26T15:58:13;98183.94;;;10.85;100.00
70971;BME280;58632;51.718;19.446;2023-03-26T16:03:28;98188.98;;;10.67;100.00
70971;BME280;58632;51.718;19.446;2023-03-26T16:16:58;98185.95;;;10.36;100.00
70971;BME280;58632;51.718;19.446;2023-03-26T16:19:26;98189.98;;;10.28;100.00
70971;BME280;58632;51.718;19.446;2023-03-26T16:21:59;98182.87;;;10.18;100.00
70971;BME280;58632;51.718;19.446;2023-03-26T16:24:26;98188.90;;;10.07;100.00
70971;BME280;58632;51.718;19.446;2023-03-26T16:29:26;98188.67;;;9.83;100.00
70971;BME280;58632;51.718;19.446;2023-03-26T16:42:41;98198.59;;;9.21;100.00
70971;BME280;58632;51.718;19.446;2023-03-26T16:45:15;98195.48;;;9.10;100.00
70971;BME280;58632;51.718;19.446;2023-03-26T16:48:16;98193.31;;;9.01;100.00
70971;BME280;58632;51.718;19.446;2023-03-26T16:50:45;98193.95;;;8.93;100.00
70971;BME280;58632;51.718;19.446;2023-03-26T16:55:50;98192.77;;;8.83;100.00
70971;BME280;58632;51.718;19.446;2023-03-26T17:03:31;98190.02;;;8.68;100.00
70971;BME280;58632;51.718;19.446;2023-03-26T17:06:09;98188.93;;;8.60;100.00
70971;BME280;58632;51.718;19.446;2023-03-26T17:08:50;98191.65;;;8.52;100.00
70971;BME280;58632;51.718;19.446;2023-03-26T17:11:30;98189.57;;;8.41;100.00
70971;BME280;58632;51.718;19.446;2023-03-26T17:17:04;98196.63;;;8.20;100.00
70971;BME280;58632;51.718;19.446;2023-03-26T17:22:09;98199.98;;;7.93;100.00
70971;BME280;58632;51.718;19.446;2023-03-26T17:24:57;98200.33;;;7.79;100.00
70971;BME280;58632;51.718;19.446;2023-03-26T17:35:15;98202.83;;;7.21;100.00
70971;BME280;58632;51.718;19.446;2023-03-26T17:37:42;98205.29;;;7.08;100.00
70971;BME280;58632;51.718;19.446;2023-03-26T17:41:11;98205.30;;;6.89;100.00
70971;BME280;58632;51.718;19.446;2023-03-26T17:43:08;98203.44;;;6.73;100.00
70971;BME280;58632;51.718;19.446;2023-03-26T17:45:36;98206.92;;;6.62;100.00
70971;BME280;58632;51.718;19.446;2023-03-26T17:48:13;98206.92;;;6.51;100.00
70971;BME280;58632;51.718;19.446;2023-03-26T17:50:49;98204.38;;;6.39;100.00
70971;BME280;58632;51.718;19.446;2023-03-26T17:53:18;98199.92;;;6.27;100.00
70971;BME280;58632;51.718;19.446;2023-03-26T17:55:45;98203.31;;;6.16;100.00
70971;BME280;58632;51.718;19.446;2023-03-26T17:58:19;98201.73;;;6.05;100.00
70971;BME280;58632;51.718;19.446;2023-03-26T18:00:48;98202.08;;;5.94;100.00
70971;BME280;58632;51.718;19.446;2023-03-26T18:05:43;98197.10;;;5.74;100.00
70971;BME280;58632;51.718;19.446;2023-03-26T18:08:12;98200.04;;;5.68;100.00
70971;BME280;58632;51.718;19.446;2023-03-26T18:18:33;98202.20;;;5.58;100.00
70971;BME280;58632;51.718;19.446;2023-03-26T18:21:02;98202.86;;;5.59;100.00
70971;BME280;58632;51.718;19.446;2023-03-26T18:26:18;98204.65;;;5.59;100.00